createdAt,value
2022-10-17T14:10:38.702Z,1.13
2022-10-17T14:13:08.182Z,1.30
2022-10-17T14:15:36.553Z,1.17
2022-10-17T14:18:08.907Z,1.08
2022-10-17T14:23:33.051Z,1.08
2022-10-17T14:26:09.169Z,1.13
2022-10-17T14:28:36.387Z,1.00
2022-10-17T14:31:15.281Z,1.13
2022-10-17T14:33:50.576Z,1.10
2022-10-17T14:36:19.816Z,1.30
2022-10-17T14:38:50.057Z,1.10
2022-10-17T14:41:44.497Z,1.15
2022-10-17T14:44:26.212Z,0.90
2022-10-17T14:46:56.750Z,1.00
2022-10-17T14:49:39.256Z,1.10
2022-10-17T14:52:18.583Z,1.17
2022-10-17T14:54:47.673Z,1.27
2022-10-17T14:57:27.679Z,1.60
2022-10-17T14:59:58.239Z,1.58
2022-10-17T15:02:28.167Z,1.55
2022-10-17T15:04:55.451Z,1.45
2022-10-17T15:07:23.513Z,1.17
2022-10-17T15:09:52.491Z,1.55
2022-10-17T15:12:28.143Z,1.40
2022-10-17T15:14:55.108Z,1.33
2022-10-17T15:17:28.501Z,1.35
2022-10-17T15:19:55.713Z,1.27
2022-10-17T15:22:22.761Z,1.70
2022-10-17T15:24:49.581Z,1.42
2022-10-17T15:27:22.153Z,1.40
2022-10-17T15:29:49.689Z,1.52
2022-10-17T15:32:16.527Z,2.00
2022-10-17T15:34:43.478Z,1.70
2022-10-17T15:37:20.687Z,1.85
2022-10-17T15:39:54.034Z,2.50
2022-10-17T15:42:28.793Z,2.45
2022-10-17T15:44:56.462Z,2.20
2022-10-17T15:47:30.820Z,2.10
2022-10-17T15:49:57.846Z,6.43
2022-10-17T15:52:24.683Z,4.30
2022-10-17T15:54:51.662Z,3.92
2022-10-17T15:57:24.316Z,2.08
2022-10-17T15:59:52.385Z,1.90
2022-10-17T16:02:20.885Z,2.10
2022-10-17T16:04:49.260Z,2.10
2022-10-17T16:07:16.668Z,1.88
2022-10-17T16:09:43.443Z,1.52
2022-10-17T16:12:18.113Z,1.73
2022-10-17T16:14:45.174Z,1.65
2022-10-17T16:17:16.394Z,1.70
2022-10-17T16:19:43.456Z,1.90
2022-10-17T16:22:21.179Z,1.73
2022-10-17T16:24:47.869Z,1.77
2022-10-17T16:27:14.565Z,2.70
2022-10-17T16:29:41.291Z,2.17
2022-10-17T16:32:09.924Z,2.45
2022-10-17T16:34:36.795Z,1.90
2022-10-17T16:37:03.578Z,1.73
2022-10-17T16:39:30.290Z,2.22
2022-10-17T16:41:58.603Z,1.73
2022-10-17T16:44:25.652Z,2.17
2022-10-17T16:46:52.339Z,2.28
2022-10-17T16:49:19.016Z,2.17
2022-10-17T16:51:45.671Z,2.30
2022-10-17T16:54:12.368Z,2.08
2022-10-17T16:56:39.094Z,2.20
2022-10-17T16:59:05.805Z,2.15
2022-10-17T17:01:32.629Z,1.75
2022-10-17T17:03:59.559Z,2.20
2022-10-17T17:06:30.092Z,2.13
2022-10-17T17:08:57.471Z,1.88
2022-10-17T17:11:26.613Z,2.30
2022-10-17T17:13:56.264Z,2.35
2022-10-17T17:16:25.357Z,3.00
2022-10-17T17:19:00.553Z,2.20
2022-10-17T17:21:27.903Z,2.60
2022-10-17T17:23:58.303Z,3.60
2022-10-17T17:26:26.792Z,2.83
2022-10-17T17:28:54.254Z,2.83
2022-10-17T17:31:24.035Z,2.25
2022-10-17T17:33:52.086Z,2.78
2022-10-17T17:36:21.914Z,3.47
2022-10-17T17:38:49.714Z,3.10
2022-10-17T17:41:18.420Z,2.70
2022-10-17T17:43:46.880Z,1.65
2022-10-17T17:46:16.455Z,1.70
2022-10-17T17:48:44.079Z,1.60
2022-10-17T17:51:14.506Z,1.60
2022-10-17T17:53:41.347Z,1.40
2022-10-17T17:56:11.028Z,1.88
2022-10-17T17:58:37.708Z,1.50
2022-10-17T18:01:21.333Z,2.83
2022-10-17T18:03:49.852Z,3.33
2022-10-17T18:06:17.253Z,2.67
2022-10-17T18:08:45.822Z,2.90
2022-10-17T18:11:15.054Z,3.38
2022-10-17T18:13:43.824Z,2.58
2022-10-17T18:16:13.572Z,2.00
2022-10-17T18:18:42.656Z,1.63
2022-10-17T18:21:10.988Z,2.33
2022-10-17T18:23:42.370Z,3.85
2022-10-17T18:26:09.873Z,2.05
2022-10-17T18:28:38.842Z,1.90
2022-10-17T18:31:19.408Z,1.88
2022-10-17T18:33:46.550Z,1.70
2022-10-17T18:36:15.559Z,1.63
2022-10-17T18:38:42.825Z,1.90
2022-10-17T18:41:17.092Z,2.05
2022-10-17T18:43:45.807Z,1.98
2022-10-17T18:46:15.679Z,2.17
2022-10-17T18:48:44.524Z,1.88
2022-10-17T18:51:12.624Z,1.80
2022-10-17T18:53:43.832Z,1.83
2022-10-17T18:56:11.480Z,1.90
2022-10-17T18:58:39.062Z,1.90
2022-10-17T19:01:15.362Z,1.80
2022-10-17T19:03:44.140Z,2.33
2022-10-17T19:06:12.555Z,2.10
2022-10-17T19:08:39.973Z,1.90
2022-10-17T19:11:12.376Z,1.80
2022-10-17T19:13:39.756Z,2.00
2022-10-17T19:16:08.341Z,1.83
2022-10-17T19:18:36.310Z,1.58
2022-10-17T19:21:07.976Z,1.70
2022-10-17T19:23:35.868Z,1.77
2022-10-17T19:26:11.115Z,1.70
2022-10-17T19:28:41.441Z,1.70
2022-10-17T19:31:08.590Z,2.05
2022-10-17T19:33:35.632Z,1.85
2022-10-17T19:36:05.453Z,1.80
2022-10-17T19:38:32.518Z,2.10
2022-10-17T19:43:31.709Z,2.10
2022-10-17T19:46:02.460Z,2.40
2022-10-17T19:48:32.383Z,1.90
2022-10-17T19:50:59.361Z,2.10
2022-10-17T19:53:27.969Z,2.00
2022-10-17T19:55:54.930Z,2.20
2022-10-17T19:58:21.681Z,2.08
2022-10-17T20:00:57.294Z,1.90
2022-10-17T20:03:28.141Z,2.30
2022-10-17T20:05:55.472Z,2.28
2022-10-17T20:08:22.340Z,1.77
2022-10-17T20:10:49.083Z,1.80
2022-10-17T20:13:16.078Z,1.88
2022-10-17T20:15:42.792Z,1.85
2022-10-17T20:18:09.934Z,2.08
2022-10-17T20:20:37.705Z,1.70
2022-10-17T20:23:04.870Z,1.67
2022-10-17T20:25:33.344Z,1.90
2022-10-17T20:28:00.413Z,1.70
2022-10-17T20:30:27.116Z,1.90
2022-10-17T20:32:55.597Z,1.60
2022-10-17T20:35:23.197Z,2.05
2022-10-17T20:37:50.105Z,2.08
2022-10-17T20:40:34.067Z,1.88
2022-10-17T20:43:02.374Z,1.90
2022-10-17T20:45:43.717Z,1.95
2022-10-17T20:48:16.242Z,1.95
2022-10-17T20:50:43.724Z,2.10
2022-10-17T20:53:35.564Z,1.73
2022-10-17T20:56:07.295Z,1.85
2022-10-17T20:58:34.061Z,1.77
2022-10-17T21:01:10.709Z,1.75
2022-10-17T21:03:42.303Z,2.00
2022-10-17T21:06:13.125Z,2.05
2022-10-17T21:08:40.230Z,1.75
2022-10-17T21:11:19.930Z,1.85
2022-10-17T21:13:47.890Z,1.60
2022-10-17T21:16:17.216Z,1.95
2022-10-17T21:18:44.718Z,1.52
2022-10-17T21:21:13.765Z,1.60
2022-10-17T21:23:42.124Z,1.42
2022-10-17T21:26:10.237Z,1.90
2022-10-17T21:28:37.539Z,2.00
2022-10-17T21:31:31.278Z,1.83
